Time;durP1;ratioP1;P1;durP2;ratioP2;P2;SDS_P1;SDS_P2;PMS_P1;PMS_P2;Temp;Humidity;BMP_temperature;BMP_pressure;BME280_temperature;BME280_humidity;BME280_pressure;Samples;Min_cycle;Max_cycle;Signal;HPM_P1;HPM_P2
2023/09/21 00:01:06;;;;;;;4.50;2.35;;;20.80;1.00;;;;;;5114501;28;20167;-71
2023/09/21 00:03:35;;;;;;;2.33;2.10;;;20.80;1.00;;;;;;5114821;28;20638;-71
2023/09/21 00:06:01;;;;;;;3.28;2.10;;;20.90;1.00;;;;;;5115014;28;20171;-72
2023/09/21 00:08:27;;;;;;;3.50;2.22;;;20.90;1.00;;;;;;5114608;27;20649;-71
2023/09/21 00:10:54;;;;;;;3.05;2.47;;;21.00;1.00;;;;;;5113239;28;20254;-71
2023/09/21 00:13:27;;;;;;;3.35;2.45;;;21.00;1.00;;;;;;5114660;28;20206;-71
2023/09/21 00:15:56;;;;;;;4.10;2.25;;;21.00;1.00;;;;;;5114270;28;20311;-71
2023/09/21 00:18:26;;;;;;;3.35;2.00;;;21.00;1.00;;;;;;5114535;28;20182;-72
2023/09/21 00:20:53;;;;;;;4.53;2.22;;;21.00;1.00;;;;;;5114146;27;20266;-72
2023/09/21 00:23:24;;;;;;;4.40;2.22;;;21.00;1.00;;;;;;5114211;28;20201;-72
2023/09/21 00:25:57;;;;;;;2.28;2.08;;;21.00;1.00;;;;;;5114413;28;20178;-72
2023/09/21 00:28:24;;;;;;;2.47;1.98;;;21.10;1.00;;;;;;5114269;28;20163;-72
2023/09/21 00:30:53;;;;;;;4.70;2.42;;;21.10;1.00;;;;;;5113352;28;20247;-72
2023/09/21 00:33:19;;;;;;;3.17;2.22;;;21.10;1.00;;;;;;5114488;28;20212;-72
2023/09/21 00:35:46;;;;;;;2.88;2.30;;;21.10;1.00;;;;;;5114120;28;20163;-72
2023/09/21 00:38:14;;;;;;;2.40;2.20;;;21.10;1.00;;;;;;5114109;28;20171;-71
2023/09/21 00:40:40;;;;;;;3.03;2.10;;;21.10;1.00;;;;;;5113918;28;20207;-71
2023/09/21 00:43:12;;;;;;;4.30;2.20;;;21.10;1.00;;;;;;5114214;28;20178;-72
2023/09/21 00:45:42;;;;;;;2.20;1.85;;;21.00;1.00;;;;;;5113915;28;20258;-72
2023/09/21 00:48:12;;;;;;;3.88;2.53;;;21.00;1.00;;;;;;5113767;28;20179;-72
2023/09/21 00:50:44;;;;;;;4.68;2.42;;;20.90;1.00;;;;;;5113895;28;20224;-72
2023/09/21 00:53:14;;;;;;;2.40;2.20;;;20.90;1.00;;;;;;5113750;28;20179;-72
2023/09/21 00:55:46;;;;;;;3.40;2.30;;;20.90;1.00;;;;;;5113941;27;20175;-72
2023/09/21 00:58:12;;;;;;;6.13;2.35;;;20.90;1.00;;;;;;5113868;28;20190;-73
2023/09/21 01:00:38;;;;;;;4.45;2.08;;;20.90;1.00;;;;;;5113399;27;20202;-72
2023/09/21 01:03:14;;;;;;;4.47;2.00;;;20.80;1.00;;;;;;5113649;28;20167;-72
2023/09/21 01:05:41;;;;;;;1.92;1.83;;;20.80;1.00;;;;;;5113813;28;20262;-72
2023/09/21 01:08:10;;;;;;;4.38;2.30;;;20.80;1.00;;;;;;5113610;28;20171;-72
2023/09/21 01:10:49;;;;;;;2.20;2.03;;;20.80;1.00;;;;;;5113574;28;20163;-72
2023/09/21 01:13:18;;;;;;;2.72;1.92;;;20.80;1.00;;;;;;5113664;28;20259;-73
2023/09/21 01:15:46;;;;;;;4.05;2.38;;;20.80;1.00;;;;;;5113332;28;20247;-72
2023/09/21 01:18:12;;;;;;;2.67;2.35;;;20.70;1.00;;;;;;5112436;28;20499;-72
2023/09/21 01:20:42;;;;;;;3.70;2.08;;;20.70;1.00;;;;;;5111868;28;20310;-72
2023/09/21 01:23:18;;;;;;;3.10;2.00;;;20.70;1.00;;;;;;5113508;28;20217;-72
2023/09/21 01:25:52;;;;;;;3.90;2.40;;;20.70;1.00;;;;;;5112321;28;20175;-72
2023/09/21 01:28:22;;;;;;;3.53;1.90;;;20.70;1.00;;;;;;5113060;28;20228;-72
2023/09/21 01:30:49;;;;;;;2.70;2.10;;;20.60;1.00;;;;;;5113240;28;20266;-72
2023/09/21 01:33:18;;;;;;;4.38;2.40;;;20.60;1.00;;;;;;5113414;28;20622;-72
2023/09/21 01:35:44;;;;;;;5.10;2.38;;;20.60;1.00;;;;;;5113600;28;20258;-72
2023/09/21 01:38:12;;;;;;;2.40;2.10;;;20.50;1.00;;;;;;5113418;28;20278;-72
2023/09/21 01:40:39;;;;;;;4.03;2.20;;;20.60;1.00;;;;;;5113247;28;20626;-73
2023/09/21 01:43:06;;;;;;;3.20;2.33;;;20.60;1.00;;;;;;5113403;28;20205;-72
2023/09/21 01:45:33;;;;;;;2.35;2.10;;;20.50;1.00;;;;;;5116252;28;20262;-72
2023/09/21 01:48:00;;;;;;;4.15;2.20;;;20.50;1.00;;;;;;5117289;28;20175;-72
2023/09/21 01:50:28;;;;;;;4.07;2.20;;;20.50;1.00;;;;;;5117541;28;20202;-72
2023/09/21 01:52:54;;;;;;;2.20;1.92;;;20.50;1.00;;;;;;5117372;28;20159;-72
2023/09/21 01:55:20;;;;;;;2.90;2.00;;;20.50;1.00;;;;;;5117428;28;20296;-72
2023/09/21 01:57:45;;;;;;;3.67;2.15;;;20.50;1.00;;;;;;5116652;28;20200;-72
2023/09/21 02:00:35;;;;;;;2.50;2.30;;;20.40;1.00;;;;;;5117337;28;20219;-72
2023/09/21 02:02:57;;;;;;;4.55;2.40;;;20.40;1.00;;;;;;5116749;28;20183;-72
2023/09/21 02:05:24;;;;;;;2.50;2.30;;;20.40;1.00;;;;;;5117273;28;20562;-72
2023/09/21 02:07:50;;;;;;;3.53;2.40;;;20.50;1.00;;;;;;5117223;28;20228;-72
2023/09/21 02:10:17;;;;;;;2.42;2.20;;;20.40;1.00;;;;;;5116911;28;20175;-72
2023/09/21 02:13:05;;;;;;;3.35;2.40;;;20.40;1.00;;;;;;5116867;27;20272;-72
2023/09/21 02:15:34;;;;;;;4.78;2.50;;;20.40;1.00;;;;;;5117215;28;20167;-72
2023/09/21 02:18:02;;;;;;;3.22;2.40;;;20.40;1.00;;;;;;5116924;28;20167;-72
2023/09/21 02:20:29;;;;;;;3.75;2.30;;;20.40;1.00;;;;;;5116619;27;20226;-73
2023/09/21 02:23:02;;;;;;;3.25;2.20;;;20.40;1.00;;;;;;5116734;28;20282;-72
2023/09/21 02:25:34;;;;;;;2.30;2.10;;;20.50;1.00;;;;;;5117256;28;20292;-73
2023/09/21 02:28:11;;;;;;;3.05;2.00;;;20.50;1.00;;;;;;5116548;28;20163;-73
2023/09/21 02:30:46;;;;;;;3.22;2.40;;;20.50;1.00;;;;;;5116759;28;20174;-72
2023/09/21 02:33:12;;;;;;;4.55;2.05;;;20.50;1.00;;;;;;5116689;28;20170;-73
2023/09/21 02:35:41;;;;;;;6.15;2.58;;;20.50;1.00;;;;;;5116510;28;20167;-73
2023/09/21 02:38:12;;;;;;;3.33;2.20;;;20.60;1.00;;;;;;5116577;28;20631;-73
2023/09/21 02:40:39;;;;;;;3.70;2.25;;;20.60;1.00;;;;;;5116113;28;20700;-72
2023/09/21 02:43:05;;;;;;;2.65;2.08;;;20.60;1.00;;;;;;5116471;28;20163;-72
2023/09/21 02:45:31;;;;;;;5.05;2.22;;;20.50;1.00;;;;;;5116576;28;20180;-73
2023/09/21 02:48:01;;;;;;;2.80;2.22;;;20.50;1.00;;;;;;5116307;28;20163;-73
2023/09/21 02:50:27;;;;;;;4.05;2.40;;;20.50;1.00;;;;;;5116096;28;20533;-73
2023/09/21 02:52:54;;;;;;;2.75;2.20;;;20.50;1.00;;;;;;5116227;28;20686;-73
2023/09/21 02:55:22;;;;;;;3.45;2.10;;;20.50;1.00;;;;;;5115245;28;20642;-72
2023/09/21 02:57:55;;;;;;;4.72;2.13;;;20.60;1.00;;;;;;5116398;28;20186;-72
2023/09/21 03:00:34;;;;;;;5.25;2.38;;;20.60;1.00;;;;;;5116062;28;20207;-72
2023/09/21 03:03:02;;;;;;;2.47;2.25;;;20.60;1.00;;;;;;5115943;28;20159;-72
2023/09/21 03:05:27;;;;;;;3.22;2.08;;;20.60;1.00;;;;;;5115968;28;20175;-72
2023/09/21 03:07:56;;;;;;;3.92;2.17;;;20.50;1.00;;;;;;5116147;28;20167;-72
2023/09/21 03:10:23;;;;;;;4.43;2.45;;;20.50;1.00;;;;;;5115601;28;20171;-72
2023/09/21 03:12:49;;;;;;;6.57;2.47;;;20.60;1.00;;;;;;5115823;28;20316;-72
2023/09/21 03:15:18;;;;;;;3.38;2.38;;;20.60;1.00;;;;;;5115695;28;20243;-72
2023/09/21 03:17:45;;;;;;;2.20;2.10;;;20.60;1.00;;;;;;5115558;28;20646;-72
2023/09/21 03:20:13;;;;;;;3.03;2.20;;;20.50;1.00;;;;;;5115115;28;20231;-72
2023/09/21 03:22:41;;;;;;;5.13;2.38;;;20.50;1.00;;;;;;5115249;28;20159;-72
2023/09/21 03:25:11;;;;;;;2.80;2.00;;;20.50;1.00;;;;;;5115510;28;20182;-72
2023/09/21 03:27:41;;;;;;;4.68;2.00;;;20.40;1.00;;;;;;5115406;28;20166;-72
2023/09/21 03:30:12;;;;;;;4.38;2.05;;;20.40;1.00;;;;;;5115526;28;20175;-72
2023/09/21 03:32:40;;;;;;;2.50;2.00;;;20.40;1.00;;;;;;5115350;28;20163;-72
2023/09/21 03:35:06;;;;;;;3.63;2.28;;;20.40;1.00;;;;;;5114023;28;20238;-72
2023/09/21 03:37:32;;;;;;;4.10;2.40;;;20.30;4.00;;;;;;5115103;28;20167;-72
2023/09/21 03:39:58;;;;;;;4.97;2.28;;;20.30;3.40;;;;;;5114432;28;20564;-72
2023/09/21 03:42:24;;;;;;;3.38;2.53;;;20.30;10.80;;;;;;5113748;28;20189;-72
2023/09/21 03:44:50;;;;;;;5.97;2.53;;;20.20;14.70;;;;;;5115119;28;20219;-72
2023/09/21 03:47:17;;;;;;;2.47;2.28;;;20.10;18.80;;;;;;5114891;28;20199;-73
2023/09/21 03:49:44;;;;;;;2.60;2.00;;;20.00;29.00;;;;;;5115098;28;20175;-73
2023/09/21 03:52:15;;;;;;;2.60;2.40;;;19.80;43.50;;;;;;5115018;28;20538;-73
2023/09/21 03:54:42;;;;;;;5.45;2.60;;;19.60;41.30;;;;;;5113245;28;20171;-70
2023/09/21 03:57:11;;;;;;;5.45;2.88;;;19.50;47.90;;;;;;5114789;28;20171;-71
2023/09/21 03:59:37;;;;;;;3.53;2.33;;;19.30;59.20;;;;;;5114573;28;20239;-71
2023/09/21 04:02:03;;;;;;;4.03;2.65;;;19.20;65.30;;;;;;5114601;28;20171;-72
2023/09/21 04:04:30;;;;;;;2.70;2.50;;;19.10;73.10;;;;;;5114459;28;20666;-71
2023/09/21 04:06:56;;;;;;;3.05;2.33;;;19.00;80.00;;;;;;5113388;28;20642;-71
2023/09/21 04:09:22;;;;;;;3.55;2.65;;;19.00;81.10;;;;;;5114097;28;20168;-70
2023/09/21 04:11:47;;;;;;;2.70;2.50;;;18.90;92.00;;;;;;5113045;28;20236;-70
2023/09/21 04:14:13;;;;;;;5.00;2.70;;;18.80;93.90;;;;;;5114175;28;20175;-71
2023/09/21 04:16:39;;;;;;;2.88;2.05;;;18.70;95.00;;;;;;5113672;28;20163;-70
2023/09/21 04:19:08;;;;;;;3.17;2.58;;;18.70;96.90;;;;;;5114437;28;20294;-71
2023/09/21 04:21:34;;;;;;;4.07;2.83;;;18.70;99.90;;;;;;5113628;28;20693;-71
2023/09/21 04:23:59;;;;;;;2.65;2.45;;;18.60;99.90;;;;;;5113668;28;20187;-70
2023/09/21 04:26:25;;;;;;;3.30;2.63;;;18.60;99.90;;;;;;5113962;28;20174;-70
2023/09/21 04:28:51;;;;;;;3.33;2.88;;;18.60;99.90;;;;;;5113794;28;20181;-71
2023/09/21 04:31:16;;;;;;;3.60;2.80;;;18.60;99.90;;;;;;5114305;28;20163;-71
2023/09/21 04:33:42;;;;;;;2.80;2.50;;;18.60;99.90;;;;;;5113505;28;20163;-72
2023/09/21 04:36:07;;;;;;;2.47;2.28;;;18.50;99.90;;;;;;5113528;28;20239;-71
2023/09/21 04:38:34;;;;;;;3.63;2.72;;;18.50;99.90;;;;;;5113315;28;20179;-70
2023/09/21 04:41:00;;;;;;;4.75;2.75;;;18.50;99.90;;;;;;5114138;28;20214;-69
2023/09/21 04:43:28;;;;;;;2.97;2.70;;;18.40;99.90;;;;;;5113837;28;20171;-70
2023/09/21 04:45:54;;;;;;;3.07;2.80;;;18.30;99.90;;;;;;5113564;28;20254;-70
2023/09/21 04:48:20;;;;;;;3.50;2.73;;;18.10;99.90;;;;;;5113357;28;20249;-70
2023/09/21 04:50:49;;;;;;;6.20;2.90;;;18.00;99.90;;;;;;5113422;27;20208;-70
2023/09/21 04:53:15;;;;;;;6.10;3.23;;;17.90;99.90;;;;;;5113321;28;20178;-71
2023/09/21 04:55:41;;;;;;;4.73;2.80;;;17.90;99.90;;;;;;5113218;28;20254;-71
2023/09/21 04:58:07;;;;;;;3.70;3.00;;;17.70;99.90;;;;;;5111818;28;20224;-71
2023/09/21 05:00:33;;;;;;;5.27;3.30;;;17.70;99.90;;;;;;5113126;28;20195;-71
2023/09/21 05:02:59;;;;;;;5.03;3.03;;;17.70;99.90;;;;;;5113096;28;20224;-71
2023/09/21 05:05:26;;;;;;;3.10;2.90;;;17.70;99.90;;;;;;5112928;28;20203;-70
2023/09/21 05:07:55;;;;;;;4.03;3.23;;;17.70;99.90;;;;;;5112946;28;20206;-72
2023/09/21 05:10:20;;;;;;;6.20;3.30;;;17.70;99.90;;;;;;5112603;28;20167;-72
2023/09/21 05:12:51;;;;;;;3.63;3.00;;;17.80;99.90;;;;;;5113088;28;20637;-72
2023/09/21 05:15:17;;;;;;;3.37;2.93;;;17.80;99.90;;;;;;5111735;28;20231;-72
2023/09/21 05:17:43;;;;;;;4.03;3.63;;;17.80;99.90;;;;;;5112039;28;20622;-71
2023/09/21 05:20:09;;;;;;;5.00;3.33;;;17.80;99.90;;;;;;5112035;28;20235;-72
2023/09/21 05:22:35;;;;;;;3.73;3.00;;;17.80;99.90;;;;;;5111407;28;20207;-72
2023/09/21 05:25:02;;;;;;;3.47;2.80;;;17.80;99.90;;;;;;5112970;28;20186;-71
2023/09/21 05:27:31;;;;;;;4.33;3.17;;;17.80;99.90;;;;;;5113099;28;20210;-71
2023/09/21 05:30:01;;;;;;;3.43;3.13;;;17.80;99.90;;;;;;5112921;28;20227;-70
2023/09/21 05:32:29;;;;;;;3.33;3.03;;;17.80;99.90;;;;;;5112341;28;20239;-71
2023/09/21 05:34:56;;;;;;;4.07;2.90;;;17.90;99.90;;;;;;5112685;28;20263;-70
2023/09/21 05:37:22;;;;;;;3.50;2.80;;;17.90;99.90;;;;;;5112722;28;20179;-72
2023/09/21 05:39:48;;;;;;;4.20;3.20;;;17.90;99.90;;;;;;5112020;28;20203;-72
2023/09/21 05:42:15;;;;;;;3.40;2.87;;;18.00;99.90;;;;;;5111919;28;20168;-72
2023/09/21 05:44:42;;;;;;;6.97;3.30;;;18.00;99.90;;;;;;5111896;28;20167;-72
2023/09/21 05:47:08;;;;;;;3.90;3.40;;;18.00;99.90;;;;;;5112446;28;20588;-71
2023/09/21 05:49:36;;;;;;;5.80;3.07;;;18.00;99.90;;;;;;5112458;28;20184;-73
2023/09/21 05:52:08;;;;;;;4.20;3.40;;;18.00;99.90;;;;;;5112455;28;20266;-72
2023/09/21 05:54:35;;;;;;;5.18;4.13;;;17.90;99.90;;;;;;5111367;28;20167;-72
2023/09/21 05:57:03;;;;;;;5.20;3.17;;;17.90;99.90;;;;;;5112568;28;20190;-72
2023/09/21 05:59:31;;;;;;;3.47;3.13;;;17.80;99.90;;;;;;5111976;28;20290;-71
2023/09/21 06:01:57;;;;;;;5.50;3.37;;;17.80;99.90;;;;;;5111419;28;20211;-71
2023/09/21 06:04:24;;;;;;;4.20;3.50;;;17.80;99.90;;;;;;5111245;28;20607;-72
2023/09/21 06:06:51;;;;;;;5.23;3.03;;;17.80;99.90;;;;;;5112243;28;20179;-72
2023/09/21 06:09:20;;;;;;;3.47;3.00;;;17.80;99.90;;;;;;5112414;28;20167;-71
2023/09/21 06:11:47;;;;;;;4.97;3.23;;;17.70;99.90;;;;;;5112358;28;20180;-72
2023/09/21 06:14:13;;;;;;;4.80;3.23;;;17.80;99.90;;;;;;5111854;28;20182;-71
2023/09/21 06:16:41;;;;;;;6.40;3.17;;;17.80;99.90;;;;;;5111931;28;20174;-71
2023/09/21 06:19:07;;;;;;;3.40;3.20;;;17.80;99.90;;;;;;5111914;28;20248;-73
2023/09/21 06:21:35;;;;;;;2.57;2.37;;;17.80;99.90;;;;;;5111627;28;20231;-71
2023/09/21 06:24:03;;;;;;;4.40;2.40;;;17.70;99.90;;;;;;5111548;28;20623;-72
2023/09/21 06:26:29;;;;;;;1.70;1.60;;;17.60;99.90;;;;;;5111773;28;20175;-72
2023/09/21 06:28:55;;;;;;;1.53;1.43;;;17.40;99.90;;;;;;5112207;28;20187;-72
2023/09/21 06:31:21;;;;;;;3.20;1.90;;;17.20;99.90;;;;;;5115299;28;20520;-72
2023/09/21 06:33:47;;;;;;;1.80;1.70;;;17.00;99.90;;;;;;5115373;28;20207;-72
2023/09/21 06:36:20;;;;;;;2.83;2.10;;;16.90;99.90;;;;;;5115596;27;20168;-72
2023/09/21 06:38:50;;;;;;;1.70;1.60;;;16.90;99.90;;;;;;5115831;28;20159;-73
2023/09/21 06:41:16;;;;;;;1.93;1.63;;;16.80;99.90;;;;;;5114067;28;20183;-72
2023/09/21 06:43:44;;;;;;;2.40;1.70;;;16.60;99.90;;;;;;5115737;28;20171;-73
2023/09/21 06:46:11;;;;;;;2.37;1.77;;;16.60;99.90;;;;;;5115342;28;20649;-73
2023/09/21 06:48:37;;;;;;;2.00;1.53;;;16.60;99.90;;;;;;5115290;28;20167;-72
2023/09/21 06:51:07;;;;;;;2.07;1.87;;;16.50;99.90;;;;;;5115107;28;20163;-72
2023/09/21 06:53:34;;;;;;;3.37;2.10;;;16.50;99.90;;;;;;5115631;28;20171;-73
2023/09/21 06:56:00;;;;;;;3.53;2.23;;;16.50;99.90;;;;;;5114960;28;20195;-73
2023/09/21 06:58:25;;;;;;;2.90;2.30;;;16.50;99.90;;;;;;5115161;27;20167;-71
2023/09/21 07:00:51;;;;;;;1.90;1.80;;;16.50;99.90;;;;;;5114915;28;20255;-73
2023/09/21 07:03:18;;;;;;;4.07;3.27;;;16.50;99.90;;;;;;5114952;28;20171;-72
2023/09/21 07:05:48;;;;;;;2.30;2.03;;;16.50;99.90;;;;;;5114669;28;20172;-73
2023/09/21 07:08:15;;;;;;;2.97;2.33;;;16.40;99.90;;;;;;5114903;28;20189;-72
2023/09/21 07:10:40;;;;;;;4.17;1.87;;;16.50;99.90;;;;;;5115116;28;20167;-72
2023/09/21 07:13:07;;;;;;;3.60;2.67;;;16.50;99.90;;;;;;5114716;28;20176;-71
2023/09/21 07:15:33;;;;;;;3.13;2.00;;;16.50;99.90;;;;;;5113393;28;20175;-72
2023/09/21 07:17:59;;;;;;;2.43;2.20;;;16.60;99.90;;;;;;5084142;28;20565;-72
2023/09/21 07:20:26;;;;;;;2.30;2.00;;;16.60;99.90;;;;;;5079156;28;20243;-71
2023/09/21 07:22:53;;;;;;;1.77;1.67;;;16.60;99.90;;;;;;5080193;28;20947;-71
2023/09/21 07:25:19;;;;;;;1.60;1.50;;;16.50;99.90;;;;;;5074951;28;20586;-71
2023/09/21 07:27:46;;;;;;;1.90;1.80;;;16.50;99.90;;;;;;5080482;28;20259;-72
2023/09/21 07:30:13;;;;;;;2.87;1.93;;;16.50;99.90;;;;;;5090417;28;20285;-71
2023/09/21 07:32:39;;;;;;;2.10;1.60;;;16.50;99.90;;;;;;5096595;28;20664;-72
2023/09/21 07:35:06;;;;;;;2.00;1.90;;;16.50;99.90;;;;;;5086182;28;20180;-71
2023/09/21 07:37:32;;;;;;;2.70;1.90;;;16.60;99.90;;;;;;5087224;28;20526;-71
2023/09/21 07:40:02;;;;;;;1.90;1.80;;;16.60;99.90;;;;;;5085235;28;20216;-73
2023/09/21 07:42:28;;;;;;;2.83;2.50;;;16.50;99.90;;;;;;5080777;28;20618;-71
2023/09/21 07:44:54;;;;;;;2.97;2.10;;;16.60;99.90;;;;;;5076861;28;20267;-71
2023/09/21 07:47:21;;;;;;;2.13;2.00;;;16.60;99.90;;;;;;5082627;28;20274;-71
2023/09/21 07:49:48;;;;;;;2.30;2.10;;;16.50;99.90;;;;;;5087474;28;20190;-72
2023/09/21 07:52:13;;;;;;;3.17;2.20;;;16.40;99.90;;;;;;5092598;28;20163;-71
2023/09/21 07:54:39;;;;;;;3.90;1.80;;;16.20;99.90;;;;;;5091346;28;20172;-71
2023/09/21 07:57:06;;;;;;;2.00;1.90;;;16.10;99.90;;;;;;5090410;28;20639;-71
2023/09/21 07:59:31;;;;;;;1.90;1.80;;;15.90;99.90;;;;;;5086204;28;20207;-71
2023/09/21 08:01:57;;;;;;;2.40;2.20;;;15.80;99.90;;;;;;5089418;28;20275;-71
2023/09/21 08:04:23;;;;;;;1.90;1.80;;;15.80;99.90;;;;;;5091809;28;20180;-71
2023/09/21 08:06:49;;;;;;;5.43;2.50;;;15.90;99.90;;;;;;5092921;28;20511;-72
2023/09/21 08:09:18;;;;;;;2.23;1.93;;;15.80;99.90;;;;;;5084645;28;20328;-72
2023/09/21 08:11:44;;;;;;;5.33;2.50;;;15.90;99.90;;;;;;5082077;28;20184;-71
2023/09/21 08:14:10;;;;;;;4.17;2.70;;;16.00;99.90;;;;;;5076031;28;20177;-72
2023/09/21 08:16:37;;;;;;;8.33;3.10;;;16.10;99.90;;;;;;5087890;28;20206;-71
2023/09/21 08:19:03;;;;;;;2.87;2.67;;;16.10;99.90;;;;;;5070995;28;20237;-71
2023/09/21 08:21:29;;;;;;;3.20;2.73;;;16.10;99.90;;;;;;5088665;28;20683;-72
2023/09/21 08:23:54;;;;;;;3.23;2.93;;;16.10;99.90;;;;;;5089354;28;20283;-72
2023/09/21 08:26:20;;;;;;;5.90;2.80;;;16.20;99.90;;;;;;5084371;28;20172;-70
2023/09/21 08:28:47;;;;;;;3.53;3.20;;;16.20;99.90;;;;;;5092427;28;20183;-71
2023/09/21 08:31:13;;;;;;;6.07;3.37;;;16.20;99.90;;;;;;5086552;28;20176;-71
2023/09/21 08:33:38;;;;;;;5.73;3.50;;;16.30;99.90;;;;;;5072280;28;20586;-72
2023/09/21 08:36:05;;;;;;;4.27;3.83;;;16.40;99.90;;;;;;5086708;28;20542;-72
2023/09/21 08:38:31;;;;;;;3.80;3.50;;;16.50;99.90;;;;;;5071591;28;20185;-72
2023/09/21 08:40:59;;;;;;;5.03;3.53;;;16.60;99.90;;;;;;5073407;28;20212;-72
2023/09/21 08:43:25;;;;;;;5.53;3.20;;;16.90;99.90;;;;;;5083776;28;20258;-73
2023/09/21 08:45:52;;;;;;;5.63;4.77;;;17.10;99.90;;;;;;5091532;28;20262;-73
2023/09/21 08:48:22;;;;;;;5.87;4.40;;;17.20;99.90;;;;;;5082101;28;20209;-72
2023/09/21 08:50:52;;;;;;;6.73;5.93;;;17.40;99.90;;;;;;5076799;28;20702;-73
2023/09/21 08:53:22;;;;;;;8.10;3.10;;;17.50;99.90;;;;;;5074572;28;20176;-71
2023/09/21 08:55:50;;;;;;;8.80;3.13;;;17.70;99.90;;;;;;5073075;28;20184;-71
2023/09/21 08:58:23;;;;;;;4.43;3.17;;;17.90;99.90;;;;;;5072987;28;20661;-72
2023/09/21 09:00:56;;;;;;;4.87;3.07;;;18.10;99.90;;;;;;5075783;28;20212;-71
2023/09/21 09:03:25;;;;;;;7.07;3.00;;;18.20;99.90;;;;;;5084896;28;20255;-71
2023/09/21 09:05:55;;;;;;;5.37;3.00;;;18.40;99.90;;;;;;5082618;28;20185;-73
2023/09/21 09:08:22;;;;;;;5.97;2.80;;;18.50;99.90;;;;;;5075278;28;20204;-74
2023/09/21 09:10:48;;;;;;;4.10;2.25;;;18.70;99.90;;;;;;5082496;28;20710;-71
2023/09/21 09:13:13;;;;;;;3.90;2.70;;;18.70;99.90;;;;;;5072478;28;20263;-71
2023/09/21 09:15:42;;;;;;;4.40;2.60;;;18.70;99.90;;;;;;5071834;28;20246;-72
2023/09/21 09:18:08;;;;;;;3.13;2.50;;;18.70;99.90;;;;;;5072095;28;20278;-71
2023/09/21 09:20:37;;;;;;;2.80;2.30;;;18.70;99.90;;;;;;5073798;28;20223;-71
2023/09/21 09:23:10;;;;;;;5.82;2.63;;;18.60;99.90;;;;;;5085276;28;20191;-73
2023/09/21 09:25:37;;;;;;;9.80;3.50;;;18.60;99.90;;;;;;5074685;28;20185;-72
2023/09/21 09:28:04;;;;;;;8.50;3.38;;;18.70;99.90;;;;;;5071718;28;20176;-72
2023/09/21 09:30:30;;;;;;;5.00;2.63;;;18.80;99.90;;;;;;5073465;28;20280;-71
2023/09/21 09:32:55;;;;;;;7.78;3.08;;;18.80;99.90;;;;;;5070999;28;20624;-73
2023/09/21 09:35:21;;;;;;;5.45;3.25;;;18.70;99.90;;;;;;5071886;28;20179;-73
2023/09/21 09:37:47;;;;;;;4.45;2.40;;;18.70;99.90;;;;;;5074562;28;20178;-72
2023/09/21 09:40:14;;;;;;;5.82;2.92;;;18.70;99.90;;;;;;5077172;28;20290;-72
2023/09/21 09:42:41;;;;;;;9.10;2.78;;;18.70;99.90;;;;;;5073141;28;20656;-73
2023/09/21 09:45:16;;;;;;;7.05;2.70;;;18.80;99.90;;;;;;5072437;28;20181;-73
2023/09/21 09:47:47;;;;;;;5.50;3.00;;;18.80;99.90;;;;;;5084995;28;20176;-72
2023/09/21 09:50:17;;;;;;;3.27;2.70;;;18.80;99.90;;;;;;5072319;28;20199;-72
2023/09/21 09:52:48;;;;;;;4.50;2.77;;;18.70;99.90;;;;;;5071209;28;20176;-72
2023/09/21 09:55:14;;;;;;;4.17;2.67;;;18.60;99.90;;;;;;5079985;28;20181;-73
2023/09/21 09:57:44;;;;;;;2.95;2.00;;;18.60;99.90;;;;;;5085164;28;20238;-71
2023/09/21 10:00:22;;;;;;;1.20;1.20;;;18.50;99.90;;;;;;5079592;28;20210;-73
2023/09/21 10:02:49;;;;;;;1.80;1.20;;;18.40;99.90;;;;;;5070965;28;20191;-72
2023/09/21 10:05:19;;;;;;;1.70;1.60;;;18.20;99.90;;;;;;5091326;28;20188;-71
2023/09/21 10:07:49;;;;;;;1.57;1.47;;;18.00;99.90;;;;;;5092935;28;20169;-73
2023/09/21 10:10:17;;;;;;;1.77;1.20;;;17.70;99.90;;;;;;5074100;28;20237;-73
2023/09/21 10:12:44;;;;;;;2.37;1.50;;;17.70;99.90;;;;;;5074838;28;20180;-74
2023/09/21 10:15:16;;;;;;;1.60;1.50;;;17.80;99.90;;;;;;5078523;28;20265;-72
2023/09/21 10:17:42;;;;;;;2.80;1.47;;;17.90;99.90;;;;;;5080788;28;20173;-72
2023/09/21 10:20:24;;;;;;;1.35;1.35;;;18.00;99.90;;;;;;5085175;28;20236;-73
2023/09/21 10:22:52;;;;;;;1.80;1.70;;;18.10;99.90;;;;;;5083532;28;20561;-72
2023/09/21 10:25:39;;;;;;;1.65;1.20;;;18.10;99.90;;;;;;5091591;28;20168;-70
2023/09/21 10:28:28;;;;;;;5.50;1.73;;;18.20;99.90;;;;;;5073377;28;20247;-72
2023/09/21 10:31:22;;;;;;;1.00;1.00;;;18.30;99.90;;;;;;5093622;28;20203;-72
2023/09/21 10:33:56;;;;;;;1.73;0.93;;;18.40;99.90;;;;;;5064014;28;20191;-73
2023/09/21 10:36:22;;;;;;;0.98;0.93;;;18.40;99.90;;;;;;5077169;28;20187;-72
2023/09/21 10:39:06;;;;;;;3.75;1.20;;;18.50;99.90;;;;;;5081013;28;20168;-72
2023/09/21 10:41:35;;;;;;;1.92;1.38;;;18.60;99.90;;;;;;5088107;28;20190;-72
2023/09/21 10:44:06;;;;;;;1.02;0.90;;;18.70;99.90;;;;;;5082768;28;20191;-72
2023/09/21 10:46:34;;;;;;;1.00;1.00;;;18.80;99.90;;;;;;5076507;28;20165;-73
2023/09/21 10:49:03;;;;;;;1.13;0.90;;;18.80;99.90;;;;;;5089816;28;20183;-71
2023/09/21 10:51:30;;;;;;;1.02;1.00;;;18.70;99.90;;;;;;5094476;28;20190;-73
2023/09/21 10:53:58;;;;;;;1.30;1.15;;;18.70;99.90;;;;;;5094488;28;20164;-71
2023/09/21 10:56:25;;;;;;;3.63;3.35;;;18.80;99.90;;;;;;5098960;28;20172;-73
2023/09/21 10:58:50;;;;;;;1.90;1.80;;;19.00;99.90;;;;;;5111716;28;20179;-72
2023/09/21 11:01:18;;;;;;;1.30;1.20;;;19.00;99.90;;;;;;5095102;28;20222;-71
2023/09/21 11:03:47;;;;;;;1.10;1.00;;;18.30;99.90;;;;;;5094863;28;20164;-73
2023/09/21 11:06:16;;;;;;;1.35;1.25;;;18.00;99.90;;;;;;5093335;28;20183;-72
2023/09/21 11:08:42;;;;;;;1.55;1.45;;;18.00;99.90;;;;;;5094730;28;20164;-73
2023/09/21 11:11:08;;;;;;;1.98;1.27;;;18.20;99.90;;;;;;5094559;28;20237;-71
2023/09/21 11:13:33;;;;;;;1.63;1.52;;;17.90;99.90;;;;;;5086017;28;20195;-72
2023/09/21 11:15:59;;;;;;;0.95;0.95;;;18.00;99.90;;;;;;5078951;28;20238;-72
2023/09/21 11:18:28;;;;;;;1.30;1.20;;;17.70;99.90;;;;;;5089596;28;20640;-72
2023/09/21 11:20:56;;;;;;;4.57;1.40;;;17.50;99.90;;;;;;5093838;28;20257;-72
2023/09/21 11:23:22;;;;;;;2.20;1.20;;;17.70;99.90;;;;;;5093450;28;20180;-72
2023/09/21 11:25:49;;;;;;;1.80;1.63;;;17.50;99.90;;;;;;5093996;28;20233;-72
2023/09/21 11:28:18;;;;;;;6.83;5.47;;;17.50;99.90;;;;;;5091851;28;20194;-72
2023/09/21 11:30:45;;;;;;;8.17;7.03;;;17.40;99.90;;;;;;5093455;28;20218;-73
2023/09/21 11:33:12;;;;;;;7.73;6.87;;;17.30;99.90;;;;;;5093533;28;20250;-71
2023/09/21 11:35:38;;;;;;;5.80;4.67;;;17.30;99.90;;;;;;5093828;28;20180;-74
2023/09/21 11:38:04;;;;;;;8.63;5.90;;;17.30;99.90;;;;;;5091705;28;20176;-72
2023/09/21 11:40:31;;;;;;;3.20;2.60;;;17.50;99.90;;;;;;5092324;28;20291;-72
2023/09/21 11:42:59;;;;;;;2.63;2.43;;;17.50;99.90;;;;;;5093942;28;20183;-73
2023/09/21 11:45:26;;;;;;;3.92;2.83;;;17.50;99.90;;;;;;5093280;28;20188;-71
2023/09/21 11:47:57;;;;;;;4.07;2.97;;;17.60;99.90;;;;;;5087904;28;20176;-73
2023/09/21 11:50:35;;;;;;;2.67;2.47;;;17.50;99.90;;;;;;5085598;28;20214;-73
2023/09/21 11:53:07;;;;;;;4.90;3.40;;;17.50;99.90;;;;;;5079319;28;20172;-72
2023/09/21 11:55:33;;;;;;;3.80;3.40;;;17.60;99.90;;;;;;5075494;28;20172;-73
2023/09/21 11:58:13;;;;;;;5.07;3.42;;;17.70;99.90;;;;;;5091774;28;20232;-73
2023/09/21 12:00:44;;;;;;;5.87;2.97;;;17.50;99.90;;;;;;5093500;28;20215;-73
2023/09/21 12:03:17;;;;;;;3.57;2.50;;;17.50;99.90;;;;;;5093289;28;20172;-71
2023/09/21 12:05:43;;;;;;;5.27;2.73;;;17.40;99.90;;;;;;5093809;28;20631;-72
2023/09/21 12:08:14;;;;;;;9.77;3.07;;;17.40;99.90;;;;;;5092543;28;20617;-73
2023/09/21 12:10:41;;;;;;;3.57;1.80;;;17.40;99.90;;;;;;5093412;28;20184;-70
2023/09/21 12:13:06;;;;;;;2.93;1.60;;;17.20;99.90;;;;;;5093163;28;20262;-72
2023/09/21 12:15:33;;;;;;;2.73;1.60;;;17.20;99.90;;;;;;5089032;28;20317;-73
2023/09/21 12:18:01;;;;;;;3.60;2.07;;;17.20;99.90;;;;;;5093047;28;20218;-73
2023/09/21 12:20:27;;;;;;;2.87;1.77;;;17.20;99.90;;;;;;5091901;28;20682;-72
2023/09/21 12:22:53;;;;;;;3.00;1.60;;;17.20;99.90;;;;;;5093264;28;20188;-72
2023/09/21 12:25:20;;;;;;;3.10;1.70;;;17.30;99.90;;;;;;5093211;28;20160;-72
2023/09/21 12:27:45;;;;;;;4.67;2.00;;;17.30;99.90;;;;;;5074851;28;20657;-72
2023/09/21 12:30:12;;;;;;;5.03;4.53;;;17.20;99.90;;;;;;5082418;28;20175;-73
2023/09/21 12:32:38;;;;;;;4.43;3.60;;;17.20;99.90;;;;;;5091076;28;20195;-73
2023/09/21 12:35:07;;;;;;;6.47;4.33;;;17.10;99.90;;;;;;5080415;28;20207;-74
2023/09/21 12:37:33;;;;;;;3.90;2.70;;;17.20;99.90;;;;;;5087332;28;20274;-73
2023/09/21 12:39:59;;;;;;;3.83;3.43;;;17.20;99.90;;;;;;5086052;28;20311;-72
2023/09/21 12:42:25;;;;;;;4.97;2.60;;;17.30;99.90;;;;;;5081577;28;20168;-72
2023/09/21 12:44:51;;;;;;;2.83;2.30;;;17.30;99.90;;;;;;5085950;28;20176;-74
2023/09/21 12:47:17;;;;;;;5.03;2.23;;;17.40;99.90;;;;;;5082956;28;20390;-73
2023/09/21 12:49:43;;;;;;;2.17;1.90;;;17.40;99.90;;;;;;5070385;28;20168;-71
2023/09/21 12:52:09;;;;;;;3.53;2.13;;;17.40;99.90;;;;;;5072427;28;20180;-71
2023/09/21 12:54:35;;;;;;;3.30;2.90;;;17.40;99.90;;;;;;5078925;28;20175;-72